Time;durP1;ratioP1;P1;durP2;ratioP2;P2;SDS_P1;SDS_P2;PMS_P1;PMS_P2;Temp;Humidity;BMP_temperature;BMP_pressure;BME280_temperature;BME280_humidity;BME280_pressure;Samples;Min_cycle;Max_cycle;Signal;HPM_P1;HPM_P2
2021/04/07 00:00:17;;;;;;;2.73;2.53;;;0.50;99.90;;;;;;5094379;28;20458;-82
2021/04/07 00:02:43;;;;;;;2.13;1.93;;;0.50;99.90;;;;;;5094487;28;20452;-82
2021/04/07 00:05:13;;;;;;;2.27;2.17;;;0.50;99.90;;;;;;5094349;28;20432;-81
2021/04/07 00:07:42;;;;;;;2.10;2.00;;;0.50;99.90;;;;;;5095241;28;20458;-81
2021/04/07 00:10:11;;;;;;;2.20;1.87;;;0.50;99.90;;;;;;5094393;28;20456;-81
2021/04/07 00:12:37;;;;;;;3.07;2.30;;;0.50;99.90;;;;;;5094435;28;20812;-81
2021/04/07 00:15:06;;;;;;;2.70;2.23;;;0.50;99.90;;;;;;5094447;28;20444;-81
2021/04/07 00:17:33;;;;;;;2.17;2.00;;;0.50;99.90;;;;;;5094207;28;20425;-81
2021/04/07 00:19:59;;;;;;;1.90;1.80;;;0.60;99.90;;;;;;5093978;28;20524;-82
2021/04/07 00:22:25;;;;;;;2.30;2.10;;;0.50;99.90;;;;;;5094446;28;20531;-81
2021/04/07 00:24:52;;;;;;;5.13;2.83;;;0.50;99.90;;;;;;5094365;28;20407;-81
2021/04/07 00:27:25;;;;;;;2.23;1.60;;;0.60;99.90;;;;;;5093971;28;20481;-81
2021/04/07 00:29:51;;;;;;;1.97;1.77;;;0.60;99.90;;;;;;5093909;28;20461;-81
2021/04/07 00:32:18;;;;;;;2.00;1.80;;;0.50;99.90;;;;;;5094041;28;20454;-81
2021/04/07 00:34:44;;;;;;;3.00;1.80;;;0.50;99.90;;;;;;5093893;28;20466;-81
2021/04/07 00:37:10;;;;;;;2.20;1.63;;;0.50;99.90;;;;;;5094546;28;20418;-81
2021/04/07 00:39:37;;;;;;;7.07;2.10;;;0.50;99.90;;;;;;5093880;28;20503;-81
2021/04/07 00:42:05;;;;;;;2.67;1.80;;;0.50;99.90;;;;;;5093959;28;20444;-81
2021/04/07 00:44:32;;;;;;;1.77;1.67;;;0.50;99.90;;;;;;5093901;28;20443;-81
2021/04/07 00:46:58;;;;;;;2.57;2.07;;;0.50;99.90;;;;;;5093373;28;20464;-81
2021/04/07 00:49:25;;;;;;;2.10;1.60;;;0.60;99.90;;;;;;5093463;28;20446;-82
2021/04/07 00:51:52;;;;;;;1.90;1.70;;;0.50;99.90;;;;;;5094478;28;20452;-81
2021/04/07 00:54:19;;;;;;;1.97;1.87;;;0.50;99.90;;;;;;5093472;28;20447;-81
2021/04/07 00:56:46;;;;;;;2.50;1.90;;;0.50;99.90;;;;;;5093728;28;20459;-81
2021/04/07 00:59:14;;;;;;;2.70;1.40;;;0.50;99.90;;;;;;5093304;28;20522;-81
2021/04/07 01:01:41;;;;;;;2.47;2.27;;;0.50;99.90;;;;;;5094017;28;20487;-81
2021/04/07 01:04:08;;;;;;;2.07;1.90;;;0.50;99.90;;;;;;5093632;28;20447;-82
2021/04/07 01:06:36;;;;;;;1.73;1.63;;;0.50;99.90;;;;;;5093562;28;20463;-82
2021/04/07 01:09:03;;;;;;;1.77;1.60;;;0.60;99.90;;;;;;5093196;28;20477;-82
2021/04/07 01:11:29;;;;;;;2.60;1.73;;;0.50;99.90;;;;;;5093521;28;20415;-82
2021/04/07 01:13:56;;;;;;;2.90;1.90;;;0.40;99.90;;;;;;5093573;28;20418;-82
2021/04/07 01:16:23;;;;;;;1.90;1.80;;;0.40;99.90;;;;;;5093469;28;20501;-82
2021/04/07 01:18:51;;;;;;;3.40;2.00;;;0.40;99.90;;;;;;5094476;28;20462;-82
2021/04/07 01:21:17;;;;;;;2.13;2.00;;;0.30;99.90;;;;;;5100120;28;20502;-81
2021/04/07 01:23:45;;;;;;;3.40;2.63;;;0.30;99.90;;;;;;5099898;28;20806;-81
2021/04/07 01:26:11;;;;;;;1.97;1.87;;;0.20;99.90;;;;;;5100169;28;20419;-82
2021/04/07 01:28:38;;;;;;;2.60;2.50;;;0.20;99.90;;;;;;5099853;28;20794;-82
2021/04/07 01:31:04;;;;;;;2.07;1.97;;;0.10;99.90;;;;;;5100004;28;20438;-82
2021/04/07 01:33:31;;;;;;;2.23;2.03;;;0.00;99.90;;;;;;5099823;28;20410;-82
2021/04/07 01:35:57;;;;;;;4.83;2.20;;;0.00;99.90;;;;;;5100429;28;20469;-82
2021/04/07 01:38:24;;;;;;;2.13;1.97;;;-0.10;99.90;;;;;;5099743;28;20929;-82
2021/04/07 01:40:52;;;;;;;3.03;2.70;;;-0.10;99.90;;;;;;5100031;28;20450;-82
2021/04/07 01:43:20;;;;;;;2.40;2.20;;;-0.20;99.90;;;;;;5099772;28;20410;-82
2021/04/07 01:45:47;;;;;;;3.43;2.00;;;-0.10;99.90;;;;;;5099962;28;20800;-82
2021/04/07 01:48:14;;;;;;;3.03;2.50;;;-0.20;99.90;;;;;;5099656;28;20799;-82
2021/04/07 01:50:42;;;;;;;2.13;1.93;;;-0.10;99.90;;;;;;5099789;28;20503;-82
2021/04/07 01:53:09;;;;;;;2.90;2.30;;;-0.20;99.90;;;;;;5099593;28;20418;-82
2021/04/07 01:55:35;;;;;;;2.73;2.53;;;-0.10;99.90;;;;;;5099975;28;20912;-82
2021/04/07 01:58:03;;;;;;;5.80;3.03;;;-0.20;99.90;;;;;;5099912;28;20823;-82
2021/04/07 02:00:29;;;;;;;2.37;2.20;;;-0.20;99.90;;;;;;5099736;28;20473;-82
2021/04/07 02:02:56;;;;;;;2.63;2.40;;;-0.10;99.90;;;;;;5099534;28;20465;-82
2021/04/07 02:05:22;;;;;;;2.63;2.03;;;-0.20;99.90;;;;;;5099581;28;20436;-82
2021/04/07 02:07:48;;;;;;;4.00;2.37;;;-0.10;99.90;;;;;;5099828;28;20454;-82
2021/04/07 02:10:15;;;;;;;2.57;2.20;;;-0.10;99.90;;;;;;5099449;28;20969;-82
2021/04/07 02:12:41;;;;;;;2.93;2.27;;;-0.10;99.90;;;;;;5099572;28;20436;-82
2021/04/07 02:15:12;;;;;;;2.27;2.10;;;-0.20;99.90;;;;;;5099482;28;20440;-82
2021/04/07 02:17:38;;;;;;;3.40;2.87;;;-0.20;99.90;;;;;;5099819;28;20432;-82
2021/04/07 02:20:06;;;;;;;3.30;2.40;;;-0.20;99.90;;;;;;5099610;28;21013;-82
2021/04/07 02:22:32;;;;;;;3.30;2.13;;;-0.20;99.90;;;;;;5099459;28;20444;-82
2021/04/07 02:24:59;;;;;;;2.50;2.27;;;-0.10;99.90;;;;;;5099729;28;20479;-83
2021/04/07 02:27:26;;;;;;;4.83;2.40;;;-0.10;99.90;;;;;;5099723;28;20470;-83
2021/04/07 02:29:55;;;;;;;3.00;2.80;;;0.00;99.90;;;;;;5099234;28;20844;-82
2021/04/07 02:32:24;;;;;;;3.83;2.80;;;0.00;99.90;;;;;;5095465;28;20496;-82
2021/04/07 02:34:51;;;;;;;2.70;2.50;;;0.00;99.90;;;;;;5096395;28;20496;-82
2021/04/07 02:37:18;;;;;;;3.93;2.83;;;0.10;99.90;;;;;;5096422;28;20456;-82
2021/04/07 02:39:46;;;;;;;4.23;3.10;;;0.00;99.90;;;;;;5095919;28;20971;-81
2021/04/07 02:42:13;;;;;;;3.57;2.67;;;0.10;99.90;;;;;;5096279;28;20821;-82
2021/04/07 02:44:40;;;;;;;3.73;3.03;;;0.10;99.90;;;;;;5096237;28;20427;-82
2021/04/07 02:47:07;;;;;;;2.90;2.70;;;0.10;99.90;;;;;;5095987;28;20472;-82
2021/04/07 02:49:34;;;;;;;6.00;2.43;;;0.20;99.90;;;;;;5095844;28;20448;-82
2021/04/07 02:52:01;;;;;;;3.10;2.70;;;0.20;99.90;;;;;;5095789;28;20455;-82
2021/04/07 02:54:27;;;;;;;2.83;2.63;;;0.10;99.90;;;;;;5095991;28;20454;-83
2021/04/07 02:56:54;;;;;;;3.87;2.90;;;0.20;99.90;;;;;;5096079;28;20440;-83
2021/04/07 02:59:20;;;;;;;3.00;2.70;;;0.20;99.90;;;;;;5095815;28;20468;-83
2021/04/07 03:01:46;;;;;;;6.70;3.90;;;0.20;99.90;;;;;;5095873;28;21022;-82
2021/04/07 03:04:13;;;;;;;4.07;3.47;;;0.10;99.90;;;;;;5095603;28;20486;-83
2021/04/07 03:06:41;;;;;;;5.17;2.87;;;0.10;99.90;;;;;;5095775;28;20842;-82
2021/04/07 03:09:07;;;;;;;2.77;2.57;;;0.10;99.90;;;;;;5095351;28;20468;-82
2021/04/07 03:11:34;;;;;;;4.40;3.40;;;0.20;99.90;;;;;;5095687;28;20422;-82
2021/04/07 03:14:00;;;;;;;3.10;2.80;;;0.20;99.90;;;;;;5095676;28;20448;-83
2021/04/07 03:16:27;;;;;;;4.90;3.20;;;0.20;99.90;;;;;;5095322;28;20439;-83
2021/04/07 03:18:53;;;;;;;5.30;2.60;;;0.10;99.90;;;;;;5095494;28;20431;-83
2021/04/07 03:21:20;;;;;;;2.50;2.37;;;0.20;99.90;;;;;;5095714;28;20522;-82
2021/04/07 03:23:47;;;;;;;3.63;3.33;;;0.20;99.90;;;;;;5095080;28;20452;-83
2021/04/07 03:26:13;;;;;;;4.13;2.77;;;0.20;99.90;;;;;;5095418;28;20451;-82
2021/04/07 03:28:40;;;;;;;3.60;3.07;;;0.20;99.90;;;;;;5095463;28;20448;-83
2021/04/07 03:31:06;;;;;;;2.20;2.10;;;0.20;99.90;;;;;;5095283;28;20466;-83
2021/04/07 03:33:35;;;;;;;3.50;1.90;;;0.30;99.90;;;;;;5094963;28;20513;-83
2021/04/07 03:36:03;;;;;;;2.37;2.17;;;0.20;99.90;;;;;;5095247;28;20426;-82
2021/04/07 03:38:29;;;;;;;4.67;2.70;;;0.20;99.90;;;;;;5095208;28;20447;-82
2021/04/07 03:40:57;;;;;;;2.47;2.17;;;0.10;99.90;;;;;;5094762;28;20475;-82
2021/04/07 03:43:24;;;;;;;2.87;2.60;;;0.10;99.90;;;;;;5094705;28;20460;-82
2021/04/07 03:45:52;;;;;;;2.83;2.57;;;0.20;99.90;;;;;;5094845;28;20459;-83
2021/04/07 03:48:20;;;;;;;2.63;2.43;;;0.20;99.90;;;;;;5094657;28;20490;-82
2021/04/07 03:50:47;;;;;;;3.77;2.87;;;0.20;99.90;;;;;;5094577;28;20993;-82
2021/04/07 03:53:15;;;;;;;3.33;2.60;;;0.20;99.90;;;;;;5094873;28;20490;-82
2021/04/07 03:55:42;;;;;;;3.03;2.60;;;0.30;99.90;;;;;;5095225;28;20470;-82
2021/04/07 03:58:09;;;;;;;5.90;2.50;;;0.30;99.90;;;;;;5094866;28;20766;-82
2021/04/07 04:00:36;;;;;;;4.27;2.80;;;0.40;99.90;;;;;;5094296;28;20466;-83
2021/04/07 04:03:02;;;;;;;2.30;2.10;;;0.30;99.90;;;;;;5094654;28;20448;-83
2021/04/07 04:05:28;;;;;;;3.23;2.60;;;0.30;99.90;;;;;;5094322;28;20444;-83
2021/04/07 04:07:54;;;;;;;2.80;2.43;;;0.20;99.90;;;;;;5094338;28;20444;-83
2021/04/07 04:10:21;;;;;;;2.90;2.40;;;0.20;99.90;;;;;;5094251;28;20430;-82
2021/04/07 04:12:48;;;;;;;3.27;2.37;;;0.20;99.90;;;;;;5094507;28;20813;-82
2021/04/07 04:15:16;;;;;;;2.50;2.30;;;0.20;99.90;;;;;;5094922;28;20452;-82
2021/04/07 04:17:43;;;;;;;3.23;2.60;;;0.20;99.90;;;;;;5094239;28;20432;-82
2021/04/07 04:20:11;;;;;;;2.20;2.10;;;0.10;99.90;;;;;;5094278;28;20533;-82
2021/04/07 04:22:38;;;;;;;2.73;2.53;;;0.10;99.90;;;;;;5094337;28;20454;-82
2021/04/07 04:25:05;;;;;;;2.43;2.10;;;0.10;99.90;;;;;;5093989;28;20436;-82
2021/04/07 04:27:31;;;;;;;1.83;1.73;;;0.10;99.90;;;;;;5094295;28;20448;-82
2021/04/07 04:29:58;;;;;;;4.30;2.37;;;0.10;99.90;;;;;;5094130;28;20516;-82
2021/04/07 04:32:25;;;;;;;2.60;2.23;;;0.10;99.90;;;;;;5094804;28;20505;-82
2021/04/07 04:34:51;;;;;;;3.57;2.27;;;0.20;99.90;;;;;;5093831;28;20455;-82
2021/04/07 04:37:17;;;;;;;5.47;2.47;;;0.20;99.90;;;;;;5093814;28;21018;-82
2021/04/07 04:39:44;;;;;;;2.43;2.00;;;0.20;99.90;;;;;;5093959;28;20470;-82
2021/04/07 04:42:10;;;;;;;3.07;2.37;;;0.20;99.90;;;;;;5097590;28;20843;-82
2021/04/07 04:44:37;;;;;;;1.70;1.60;;;0.20;99.90;;;;;;5093895;28;20443;-82
2021/04/07 04:47:03;;;;;;;2.33;1.90;;;0.20;99.90;;;;;;5093483;28;20525;-82
2021/04/07 04:49:30;;;;;;;2.77;2.10;;;0.20;99.90;;;;;;5093541;28;20440;-82
2021/04/07 04:51:57;;;;;;;2.77;2.03;;;0.20;99.90;;;;;;5093863;28;20454;-82
2021/04/07 04:54:23;;;;;;;2.80;1.77;;;0.20;99.90;;;;;;5093160;28;20428;-83
2021/04/07 04:56:49;;;;;;;2.60;2.40;;;0.20;99.90;;;;;;5093455;28;20497;-83
2021/04/07 04:59:15;;;;;;;2.50;2.30;;;0.20;99.90;;;;;;5093656;28;20532;-82
2021/04/07 05:01:42;;;;;;;8.23;1.77;;;0.20;99.90;;;;;;5093574;28;20472;-82
2021/04/07 05:04:08;;;;;;;2.13;1.93;;;0.30;99.90;;;;;;5093349;28;20801;-82
2021/04/07 05:06:36;;;;;;;1.57;1.47;;;0.30;99.90;;;;;;5093232;28;20958;-82
2021/04/07 05:09:04;;;;;;;2.30;2.17;;;0.30;99.90;;;;;;5093407;28;20444;-82
2021/04/07 05:11:32;;;;;;;2.40;2.10;;;0.30;99.90;;;;;;5093210;28;20957;-82
2021/04/07 05:13:58;;;;;;;1.67;1.30;;;0.30;99.90;;;;;;5093224;28;20431;-82
2021/04/07 05:16:24;;;;;;;3.53;1.50;;;0.30;99.90;;;;;;5093238;28;20436;-82
2021/04/07 05:18:50;;;;;;;1.90;1.80;;;0.40;99.90;;;;;;5093130;28;20959;-82
2021/04/07 05:21:17;;;;;;;3.63;1.70;;;0.40;99.90;;;;;;5093079;28;20998;-82
2021/04/07 05:23:44;;;;;;;2.27;1.97;;;0.30;99.90;;;;;;5093116;28;20456;-82
2021/04/07 05:26:10;;;;;;;1.83;1.73;;;0.40;99.90;;;;;;5093375;28;20444;-82
2021/04/07 05:28:38;;;;;;;3.13;2.03;;;0.40;99.90;;;;;;5093348;28;20855;-81
2021/04/07 05:31:04;;;;;;;2.07;1.97;;;0.40;99.90;;;;;;5093284;28;20517;-81
2021/04/07 05:33:32;;;;;;;2.60;1.97;;;0.40;99.90;;;;;;5093018;28;20432;-81
2021/04/07 05:36:00;;;;;;;2.00;1.80;;;0.50;99.90;;;;;;5092995;28;20489;-82
2021/04/07 05:38:27;;;;;;;7.43;2.17;;;0.60;99.90;;;;;;5093051;28;20407;-82
2021/04/07 05:40:55;;;;;;;4.60;2.30;;;0.60;99.90;;;;;;5092891;28;20479;-82
2021/04/07 05:43:22;;;;;;;4.17;2.00;;;0.70;99.90;;;;;;5092978;28;20558;-82
2021/04/07 05:45:49;;;;;;;2.53;2.33;;;0.70;99.90;;;;;;5092933;28;20447;-81
2021/04/07 05:48:17;;;;;;;2.67;1.87;;;0.70;99.90;;;;;;5093004;28;20484;-81
2021/04/07 05:50:44;;;;;;;2.80;2.10;;;0.70;99.90;;;;;;5093175;28;20464;-82
2021/04/07 05:53:11;;;;;;;2.27;2.07;;;0.70;99.90;;;;;;5093237;28;20448;-82
2021/04/07 05:55:38;;;;;;;2.27;2.07;;;0.70;99.90;;;;;;5093279;28;20451;-82
2021/04/07 05:58:07;;;;;;;2.63;2.17;;;0.70;99.90;;;;;;5093099;28;20447;-82
2021/04/07 06:00:35;;;;;;;2.27;2.13;;;0.80;99.90;;;;;;5093116;28;20491;-81
2021/04/07 06:03:03;;;;;;;3.77;2.13;;;1.00;99.90;;;;;;5094254;28;20475;-81
2021/04/07 06:05:29;;;;;;;2.73;2.23;;;1.20;99.90;;;;;;5096047;28;20403;-81
2021/04/07 06:07:56;;;;;;;2.20;2.00;;;1.40;99.90;;;;;;5098259;28;20460;-81
2021/04/07 06:10:25;;;;;;;2.67;2.40;;;1.50;99.90;;;;;;5097042;28;20836;-81
2021/04/07 06:12:51;;;;;;;2.60;2.40;;;1.60;99.90;;;;;;5097202;28;20443;-81
2021/04/07 06:15:19;;;;;;;2.33;2.20;;;1.80;99.90;;;;;;5096930;28;20444;-81
2021/04/07 06:17:53;;;;;;;2.37;2.17;;;1.90;99.90;;;;;;5096783;28;20439;-80
2021/04/07 06:20:21;;;;;;;3.20;1.87;;;2.10;99.90;;;;;;5096672;28;20487;-80
2021/04/07 06:22:47;;;;;;;3.10;2.17;;;2.40;99.90;;;;;;5096250;28;20939;-80
2021/04/07 06:25:14;;;;;;;2.30;2.10;;;2.40;99.90;;;;;;5096843;28;20443;-80
2021/04/07 06:27:41;;;;;;;3.57;2.40;;;2.40;99.90;;;;;;5096457;28;20455;-80
2021/04/07 06:30:08;;;;;;;3.33;2.23;;;2.40;99.90;;;;;;5096330;28;20467;-80
2021/04/07 06:32:36;;;;;;;3.50;2.23;;;2.40;99.90;;;;;;5096392;28;20552;-80
2021/04/07 06:35:02;;;;;;;3.43;2.20;;;2.60;99.90;;;;;;5096487;28;20443;-79
2021/04/07 06:37:28;;;;;;;3.00;2.10;;;2.80;99.90;;;;;;5096462;28;20447;-80
2021/04/07 06:39:54;;;;;;;2.70;2.23;;;3.30;99.90;;;;;;5096890;28;20464;-79
2021/04/07 06:42:21;;;;;;;3.43;2.10;;;3.70;99.90;;;;;;5097298;28;20448;-80
2021/04/07 06:44:48;;;;;;;3.13;2.40;;;4.00;99.90;;;;;;5099025;28;20492;-80
2021/04/07 06:47:15;;;;;;;2.50;1.70;;;4.20;99.90;;;;;;5099007;28;20486;-80
2021/04/07 06:49:43;;;;;;;2.13;1.97;;;4.10;99.90;;;;;;5096044;28;20460;-80
2021/04/07 06:52:17;;;;;;;2.13;1.93;;;4.20;99.90;;;;;;5096094;28;20425;-80
2021/04/07 06:54:46;;;;;;;2.90;1.87;;;4.20;99.90;;;;;;5096219;28;20432;-80
2021/04/07 06:57:12;;;;;;;2.37;2.00;;;4.20;99.90;;;;;;5096278;28;20437;-79
2021/04/07 06:59:38;;;;;;;2.70;1.80;;;4.30;99.90;;;;;;5095966;28;20517;-79
2021/04/07 07:02:05;;;;;;;1.87;1.77;;;4.20;99.90;;;;;;5095815;28;21031;-79
2021/04/07 07:04:31;;;;;;;5.03;2.00;;;4.40;99.90;;;;;;5095933;28;20452;-79
2021/04/07 07:07:00;;;;;;;2.37;2.00;;;4.60;99.70;;;;;;5095538;28;20439;-79
2021/04/07 07:09:26;;;;;;;1.90;1.73;;;4.80;99.10;;;;;;5095670;28;20525;-79
2021/04/07 07:11:52;;;;;;;2.03;1.83;;;4.80;98.50;;;;;;5095659;28;20481;-79
2021/04/07 07:14:20;;;;;;;1.70;1.50;;;4.60;97.50;;;;;;5095349;28;20441;-79
2021/04/07 07:16:48;;;;;;;4.33;1.70;;;4.40;97.60;;;;;;5094973;28;20444;-79
2021/04/07 07:19:21;;;;;;;2.77;1.50;;;4.00;98.30;;;;;;5095231;28;20998;-79
2021/04/07 07:21:51;;;;;;;4.47;1.63;;;3.80;98.20;;;;;;5095054;28;20476;-79
2021/04/07 07:24:33;;;;;;;2.43;1.47;;;3.60;98.50;;;;;;5095451;28;20432;-80
2021/04/07 07:27:00;;;;;;;3.90;1.60;;;3.50;99.20;;;;;;5095333;28;20917;-79
2021/04/07 07:29:29;;;;;;;2.40;1.20;;;3.60;99.00;;;;;;5095044;28;20479;-79
2021/04/07 07:31:59;;;;;;;2.43;1.90;;;3.60;98.90;;;;;;5095395;28;20463;-79
2021/04/07 07:34:26;;;;;;;5.07;1.80;;;3.70;99.70;;;;;;5094945;28;20943;-80
2021/04/07 07:36:53;;;;;;;3.30;1.57;;;3.70;96.80;;;;;;5094950;28;20866;-80
2021/04/07 07:39:24;;;;;;;1.70;1.27;;;3.70;97.50;;;;;;5095000;28;20475;-80
2021/04/07 07:41:55;;;;;;;2.00;1.63;;;3.80;96.70;;;;;;5094862;28;20856;-79
2021/04/07 07:44:23;;;;;;;3.13;1.20;;;3.90;97.40;;;;;;5095098;28;20481;-80
2021/04/07 07:46:56;;;;;;;1.73;1.57;;;4.10;97.00;;;;;;5094884;28;20505;-80
2021/04/07 07:49:23;;;;;;;2.70;1.20;;;4.10;96.50;;;;;;5094960;28;20977;-80
2021/04/07 07:51:50;;;;;;;2.80;1.27;;;4.00;95.80;;;;;;5094899;28;20523;-80
2021/04/07 07:54:18;;;;;;;1.20;1.10;;;3.90;96.30;;;;;;5094874;28;20922;-80
2021/04/07 07:56:44;;;;;;;2.83;0.80;;;3.80;96.70;;;;;;5094408;28;20966;-80
2021/04/07 07:59:12;;;;;;;1.30;1.20;;;3.70;96.10;;;;;;5094682;28;20448;-79
2021/04/07 08:01:42;;;;;;;1.60;1.40;;;3.50;94.30;;;;;;5094556;28;20475;-79
2021/04/07 08:04:09;;;;;;;2.40;1.03;;;3.30;95.40;;;;;;5094590;28;20498;-80
2021/04/07 08:06:35;;;;;;;1.90;1.20;;;3.20;96.30;;;;;;5094363;28;20451;-80
2021/04/07 08:09:03;;;;;;;3.80;1.60;;;3.20;96.80;;;;;;5094185;28;20432;-80
2021/04/07 08:11:30;;;;;;;1.20;1.10;;;3.40;97.50;;;;;;5094448;28;20958;-80
2021/04/07 08:13:59;;;;;;;2.57;1.60;;;4.10;99.20;;;;;;5094409;28;20463;-80
2021/04/07 08:16:28;;;;;;;3.73;1.13;;;4.90;96.90;;;;;;5094034;28;20455;-80
2021/04/07 08:18:57;;;;;;;1.00;0.90;;;5.80;94.80;;;;;;5094010;28;20440;-80
2021/04/07 08:21:23;;;;;;;1.20;1.10;;;6.30;92.50;;;;;;5094334;28;20467;-80
2021/04/07 08:23:55;;;;;;;1.63;1.10;;;6.70;91.50;;;;;;5094207;28;20459;-80
2021/04/07 08:26:23;;;;;;;1.57;0.97;;;6.50;89.30;;;;;;5094294;28;20439;-80
2021/04/07 08:28:51;;;;;;;3.00;1.20;;;6.00;88.00;;;;;;5093122;28;20455;-80
2021/04/07 08:31:19;;;;;;;1.27;0.90;;;5.70;90.70;;;;;;5094123;28;20493;-79
2021/04/07 08:33:48;;;;;;;8.70;1.13;;;5.40;88.80;;;;;;5094127;28;20440;-79
2021/04/07 08:36:18;;;;;;;1.20;1.03;;;5.20;90.40;;;;;;5094097;28;20441;-79
2021/04/07 08:38:44;;;;;;;1.93;1.20;;;5.00;89.90;;;;;;5093920;28;20456;-79
2021/04/07 08:41:14;;;;;;;1.83;1.20;;;5.20;91.80;;;;;;5094451;28;20464;-79
2021/04/07 08:43:40;;;;;;;1.50;1.40;;;5.20;91.40;;;;;;5093622;28;20916;-79
2021/04/07 08:46:14;;;;;;;2.40;1.40;;;5.50;91.40;;;;;;5093924;28;20462;-80
2021/04/07 08:48:41;;;;;;;1.23;1.07;;;5.90;91.60;;;;;;5093461;28;20484;-79
2021/04/07 08:51:11;;;;;;;3.23;1.10;;;6.00;90.20;;;;;;5094606;28;20467;-87
2021/04/07 08:53:41;;;;;;;4.10;1.60;;;6.40;90.60;;;;;;5094797;28;20432;-86
2021/04/07 08:56:10;;;;;;;1.57;1.47;;;6.40;89.40;;;;;;5094740;28;20431;-87
2021/04/07 08:58:49;;;;;;;1.67;1.40;;;6.40;90.00;;;;;;5094569;28;20455;-87
2021/04/07 09:01:21;;;;;;;1.83;1.10;;;6.10;87.90;;;;;;5094630;28;20472;-87
2021/04/07 09:03:47;;;;;;;2.10;1.23;;;5.80;90.10;;;;;;5094623;28;20443;-86
2021/04/07 09:06:15;;;;;;;2.30;1.10;;;5.50;91.30;;;;;;5095366;28;20429;-87
2021/04/07 09:08:52;;;;;;;3.50;1.00;;;5.10;92.50;;;;;;5094425;28;20436;-86
2021/04/07 09:11:30;;;;;;;1.57;1.40;;;4.90;93.60;;;;;;5094685;28;20412;-86
2021/04/07 09:14:04;;;;;;;1.40;1.30;;;4.80;94.30;;;;;;5094857;28;20428;-86
2021/04/07 09:16:37;;;;;;;1.53;1.20;;;4.60;96.50;;;;;;5094649;28;20470;-86
2021/04/07 09:19:18;;;;;;;1.73;1.57;;;4.60;93.80;;;;;;5094366;28;20908;-87
2021/04/07 09:21:59;;;;;;;1.50;1.17;;;4.60;92.40;;;;;;5093951;28;20452;-86
2021/04/07 09:24:29;;;;;;;1.70;1.43;;;5.00;92.30;;;;;;5094322;28;20516;-86
2021/04/07 09:26:57;;;;;;;1.90;1.70;;;5.30;91.90;;;;;;5094609;28;20432;-86
2021/04/07 09:29:24;;;;;;;2.07;1.40;;;5.50;92.00;;;;;;5094116;28;20475;-86
2021/04/07 09:31:52;;;;;;;3.03;1.43;;;5.60;91.40;;;;;;5094180;28;20413;-86
2021/04/07 09:34:18;;;;;;;3.00;1.53;;;5.60;92.00;;;;;;5094078;28;20806;-85
2021/04/07 09:36:47;;;;;;;1.90;1.50;;;5.60;92.20;;;;;;5094425;28;20429;-86
2021/04/07 09:39:16;;;;;;;3.57;1.23;;;5.80;91.50;;;;;;5093899;28;20479;-85
2021/04/07 09:41:44;;;;;;;1.83;1.50;;;6.10;89.00;;;;;;5097041;28;20467;-85
2021/04/07 09:44:12;;;;;;;1.50;1.20;;;7.00;87.50;;;;;;5098016;28;20432;-86
2021/04/07 09:46:39;;;;;;;1.50;1.40;;;7.70;84.60;;;;;;5098212;28;20800;-85
2021/04/07 09:49:07;;;;;;;1.73;1.53;;;8.90;80.50;;;;;;5097496;28;20475;-85
2021/04/07 09:51:34;;;;;;;1.63;1.30;;;8.90;71.90;;;;;;5097519;28;20899;-85
2021/04/07 09:54:17;;;;;;;1.30;1.20;;;9.70;70.20;;;;;;5097906;28;20476;-85
2021/04/07 09:56:52;;;;;;;2.40;1.37;;;9.90;69.30;;;;;;5097870;28;20818;-85
2021/04/07 09:59:20;;;;;;;1.77;1.10;;;10.20;62.40;;;;;;5097440;28;20456;-85
2021/04/07 10:01:46;;;;;;;1.50;1.40;;;10.40;60.20;;;;;;5097609;28;20523;-84
2021/04/07 10:04:12;;;;;;;2.27;2.13;;;10.80;59.90;;;;;;5097369;28;20499;-83
2021/04/07 10:06:39;;;;;;;1.80;1.50;;;11.00;58.40;;;;;;5097602;28;20424;-85
2021/04/07 10:09:07;;;;;;;1.47;1.37;;;10.20;55.90;;;;;;5097528;28;20447;-84
2021/04/07 10:11:38;;;;;;;1.70;1.60;;;9.20;59.20;;;;;;5097576;28;20797;-84
2021/04/07 10:14:05;;;;;;;1.50;1.23;;;8.30;60.60;;;;;;5097241;28;20413;-84
2021/04/07 10:16:33;;;;;;;1.77;1.50;;;7.10;64.10;;;;;;5097298;28;20409;-84
2021/04/07 10:19:00;;;;;;;3.27;1.53;;;6.80;66.80;;;;;;5096980;28;20503;-85
2021/04/07 10:21:27;;;;;;;1.90;1.30;;;6.30;68.50;;;;;;5096851;28;20474;-83
2021/04/07 10:23:57;;;;;;;3.50;1.10;;;5.80;69.80;;;;;;5096884;28;20440;-84
2021/04/07 10:26:23;;;;;;;2.70;1.10;;;5.70;72.30;;;;;;5096644;28;20926;-84
2021/04/07 10:28:58;;;;;;;1.33;0.97;;;5.70;73.80;;;;;;5096840;28;20443;-84
2021/04/07 10:31:25;;;;;;;3.03;1.27;;;5.90;71.00;;;;;;5096857;28;20431;-84
2021/04/07 10:34:05;;;;;;;1.57;1.10;;;6.20;70.80;;;;;;5096778;28;20781;-84
2021/04/07 10:36:32;;;;;;;1.53;0.90;;;6.40;68.80;;;;;;5096432;28;20518;-84
2021/04/07 10:38:59;;;;;;;1.30;1.20;;;6.60;68.50;;;;;;5096784;28;20800;-84
2021/04/07 10:41:26;;;;;;;1.50;0.97;;;6.60;68.00;;;;;;5096226;28;20525;-84
2021/04/07 10:43:53;;;;;;;1.17;0.90;;;6.80;68.40;;;;;;5096365;28;20440;-83
2021/04/07 10:46:29;;;;;;;1.27;1.20;;;7.20;70.50;;;;;;5096672;28;20810;-84
2021/04/07 10:48:57;;;;;;;1.27;1.00;;;7.80;68.50;;;;;;5096070;28;20471;-84
2021/04/07 10:51:24;;;;;;;1.80;1.00;;;8.10;65.30;;;;;;5095693;28;20495;-84
2021/04/07 10:53:56;;;;;;;2.37;1.27;;;8.80;65.20;;;;;;5096239;28;20439;-83
2021/04/07 10:56:24;;;;;;;2.00;0.90;;;9.50;63.50;;;;;;5096431;28;20489;-83
2021/04/07 10:58:56;;;;;;;1.50;1.40;;;9.20;61.60;;;;;;5096393;28;20801;-83
2021/04/07 11:01:31;;;;;;;1.80;1.10;;;8.70;60.00;;;;;;5095939;28;20452;-83
2021/04/07 11:03:57;;;;;;;2.20;1.10;;;8.90;62.80;;;;;;5096242;28;20515;-83
2021/04/07 11:06:24;;;;;;;2.40;1.10;;;8.90;61.10;;;;;;5096935;28;20440;-83
2021/04/07 11:08:52;;;;;;;3.53;1.10;;;8.70;58.80;;;;;;5096114;28;20507;-84
2021/04/07 11:11:24;;;;;;;1.73;0.80;;;8.50;58.60;;;;;;5095956;28;20420;-84
2021/04/07 11:13:51;;;;;;;2.30;1.10;;;8.40;60.20;;;;;;5096003;28;20519;-83
2021/04/07 11:16:17;;;;;;;1.47;1.03;;;8.40;61.70;;;;;;5096610;28;20759;-83
2021/04/07 11:18:45;;;;;;;2.30;1.30;;;8.50;60.70;;;;;;5095743;28;20941;-84
2021/04/07 11:21:14;;;;;;;1.63;1.10;;;8.30;59.00;;;;;;5095545;28;20471;-84
2021/04/07 11:23:41;;;;;;;1.90;1.23;;;7.90;60.30;;;;;;5095910;28;20787;-83
2021/04/07 11:26:08;;;;;;;1.23;1.13;;;7.80;61.30;;;;;;5095280;28;20428;-83
2021/04/07 11:28:35;;;;;;;2.20;1.00;;;7.90;59.70;;;;;;5095263;28;20850;-83
2021/04/07 11:31:06;;;;;;;1.00;0.90;;;7.80;60.70;;;;;;5095379;28;20967;-83
2021/04/07 11:33:40;;;;;;;1.43;1.33;;;7.80;60.20;;;;;;5095492;28;20439;-83
2021/04/07 11:36:16;;;;;;;1.10;1.10;;;7.80;61.10;;;;;;5095641;28;20440;-83
2021/04/07 11:38:45;;;;;;;2.07;1.30;;;8.10;63.00;;;;;;5095673;28;20443;-83
2021/04/07 11:46:41;;;;;;;1.40;1.10;;;8.50;57.90;;;;;;5095406;28;20426;-84
2021/04/07 11:49:08;;;;;;;1.97;1.10;;;8.20;57.10;;;;;;5094724;28;20540;-83
2021/04/07 11:51:41;;;;;;;1.10;1.00;;;8.00;57.40;;;;;;5095095;28;20416;-84
2021/04/07 11:54:08;;;;;;;1.90;1.00;;;8.00;56.90;;;;;;5095144;28;20428;-84
2021/04/07 11:56:36;;;;;;;2.97;1.10;;;8.00;56.90;;;;;;5095278;28;20528;-84
2021/04/07 11:59:03;;;;;;;2.83;1.20;;;7.70;56.70;;;;;;5094891;28;20432;-83
2021/04/07 12:01:29;;;;;;;1.20;1.10;;;7.50;57.70;;;;;;5094804;28;20456;-83
2021/04/07 12:03:55;;;;;;;4.77;1.20;;;7.40;58.70;;;;;;5094643;28;20470;-83
2021/04/07 12:06:21;;;;;;;1.43;1.33;;;7.30;58.50;;;;;;5094782;28;20431;-83
2021/04/07 12:08:49;;;;;;;2.37;1.20;;;7.50;57.90;;;;;;5094676;28;20443;-83
2021/04/07 12:11:17;;;;;;;1.17;1.03;;;7.50;57.00;;;;;;5095683;28;20514;-83
2021/04/07 12:13:43;;;;;;;3.00;1.20;;;7.60;57.70;;;;;;5095669;28;20448;-82
2021/04/07 12:16:09;;;;;;;1.80;1.00;;;7.30;58.40;;;;;;5094841;28;20961;-84
2021/04/07 12:18:35;;;;;;;1.50;1.00;;;7.20;59.50;;;;;;5094724;28;20497;-83
2021/04/07 12:21:02;;;;;;;5.33;1.30;;;6.90;60.60;;;;;;5094350;28;20476;-83
2021/04/07 12:23:28;;;;;;;2.30;0.93;;;7.10;62.50;;;;;;5094809;28;20413;-82
2021/04/07 12:25:55;;;;;;;1.50;1.20;;;7.10;61.50;;;;;;5094510;28;20920;-83
2021/04/07 12:28:23;;;;;;;2.50;1.27;;;7.10;61.20;;;;;;5094472;28;20432;-83
2021/04/07 12:30:50;;;;;;;1.67;1.20;;;7.00;63.60;;;;;;5094509;28;20464;-83
2021/04/07 12:33:18;;;;;;;2.17;1.50;;;7.00;65.70;;;;;;5094452;28;20444;-83
2021/04/07 12:35:44;;;;;;;3.33;1.00;;;7.00;66.90;;;;;;5094324;28;20535;-83
2021/04/07 12:38:12;;;;;;;2.50;1.30;;;7.30;66.90;;;;;;5094227;28;20459;-83
2021/04/07 12:40:39;;;;;;;2.30;1.10;;;7.50;66.60;;;;;;5094185;28;20508;-83
2021/04/07 12:43:06;;;;;;;0.90;0.90;;;7.50;63.30;;;;;;5094337;28;20433;-84
2021/04/07 12:45:33;;;;;;;1.53;1.03;;;7.50;62.90;;;;;;5094261;28;20432;-83
2021/04/07 12:47:59;;;;;;;1.27;1.10;;;7.50;61.20;;;;;;5093672;28;20509;-82
2021/04/07 12:50:25;;;;;;;3.03;1.03;;;7.40;61.90;;;;;;5094116;28;20467;-83
2021/04/07 12:52:51;;;;;;;2.70;1.20;;;7.60;61.90;;;;;;5094264;28;20429;-83
2021/04/07 12:55:18;;;;;;;1.00;0.93;;;7.50;62.00;;;;;;5093967;28;20413;-83
2021/04/07 12:57:44;;;;;;;2.53;1.10;;;7.40;61.70;;;;;;5093856;28;20433;-83
2021/04/07 13:00:14;;;;;;;1.87;1.30;;;7.30;63.50;;;;;;5093704;28;20459;-83
2021/04/07 13:02:40;;;;;;;3.33;1.30;;;7.30;64.00;;;;;;5094013;28;20498;-83